sensor_id;sensor_type;location;lat;lon;timestamp;P1;durP1;ratioP1;P2;durP2;ratioP2
47617;SDS011;33336;36.728;-4.414;2023-05-14T00:03:32;2.47;;;0.60;;
47617;SDS011;33336;36.728;-4.414;2023-05-14T00:08:39;2.78;;;0.88;;
47617;SDS011;33336;36.728;-4.414;2023-05-14T00:13:43;1.50;;;0.70;;
47617;SDS011;33336;36.728;-4.414;2023-05-14T00:18:47;1.98;;;0.90;;
47617;SDS011;33336;36.728;-4.414;2023-05-14T00:23:50;2.42;;;0.47;;
47617;SDS011;33336;36.728;-4.414;2023-05-14T00:28:55;0.88;;;0.60;;
47617;SDS011;33336;36.728;-4.414;2023-05-14T00:33:58;2.83;;;0.77;;
47617;SDS011;33336;36.728;-4.414;2023-05-14T00:39:02;2.05;;;1.20;;
47617;SDS011;33336;36.728;-4.414;2023-05-14T00:44:06;3.13;;;0.85;;
47617;SDS011;33336;36.728;-4.414;2023-05-14T00:49:10;2.05;;;1.30;;
47617;SDS011;33336;36.728;-4.414;2023-05-14T00:54:14;2.40;;;1.20;;
47617;SDS011;33336;36.728;-4.414;2023-05-14T00:59:20;2.42;;;1.05;;
47617;SDS011;33336;36.728;-4.414;2023-05-14T01:04:23;0.77;;;0.68;;
47617;SDS011;33336;36.728;-4.414;2023-05-14T01:09:28;1.83;;;0.60;;
47617;SDS011;33336;36.728;-4.414;2023-05-14T01:14:39;1.38;;;0.75;;
47617;SDS011;33336;36.728;-4.414;2023-05-14T01:19:46;3.78;;;1.58;;
47617;SDS011;33336;36.728;-4.414;2023-05-14T01:24:51;4.60;;;1.40;;
47617;SDS011;33336;36.728;-4.414;2023-05-14T01:29:58;3.80;;;1.08;;
47617;SDS011;33336;36.728;-4.414;2023-05-14T01:35:05;8.80;;;1.42;;
47617;SDS011;33336;36.728;-4.414;2023-05-14T01:40:11;3.00;;;0.90;;
47617;SDS011;33336;36.728;-4.414;2023-05-14T01:45:15;3.03;;;0.98;;
47617;SDS011;33336;36.728;-4.414;2023-05-14T01:50:19;2.03;;;0.80;;
47617;SDS011;33336;36.728;-4.414;2023-05-14T01:55:23;2.40;;;0.50;;
47617;SDS011;33336;36.728;-4.414;2023-05-14T02:00:27;0.68;;;0.47;;
47617;SDS011;33336;36.728;-4.414;2023-05-14T02:05:30;2.08;;;0.70;;
47617;SDS011;33336;36.728;-4.414;2023-05-14T02:10:36;2.53;;;0.75;;
47617;SDS011;33336;36.728;-4.414;2023-05-14T02:15:38;3.33;;;0.88;;
47617;SDS011;33336;36.728;-4.414;2023-05-14T02:20:42;3.80;;;0.60;;
47617;SDS011;33336;36.728;-4.414;2023-05-14T02:25:47;1.75;;;0.70;;
47617;SDS011;33336;36.728;-4.414;2023-05-14T02:30:51;1.13;;;0.50;;
47617;SDS011;33336;36.728;-4.414;2023-05-14T02:35:58;1.95;;;0.57;;
47617;SDS011;33336;36.728;-4.414;2023-05-14T02:41:04;2.67;;;0.82;;
47617;SDS011;33336;36.728;-4.414;2023-05-14T02:46:07;2.72;;;1.15;;
47617;SDS011;33336;36.728;-4.414;2023-05-14T02:51:11;2.22;;;1.40;;
47617;SDS011;33336;36.728;-4.414;2023-05-14T02:56:15;3.88;;;1.48;;
47617;SDS011;33336;36.728;-4.414;2023-05-14T03:01:19;3.58;;;1.20;;
47617;SDS011;33336;36.728;-4.414;2023-05-14T03:06:22;3.35;;;1.05;;
47617;SDS011;33336;36.728;-4.414;2023-05-14T03:11:27;0.63;;;0.60;;
47617;SDS011;33336;36.728;-4.414;2023-05-14T03:16:30;5.18;;;0.85;;
47617;SDS011;33336;36.728;-4.414;2023-05-14T03:21:39;1.20;;;0.63;;
47617;SDS011;33336;36.728;-4.414;2023-05-14T03:26:43;3.42;;;0.70;;
47617;SDS011;33336;36.728;-4.414;2023-05-14T03:31:47;2.47;;;0.68;;
47617;SDS011;33336;36.728;-4.414;2023-05-14T03:36:50;1.55;;;0.70;;
47617;SDS011;33336;36.728;-4.414;2023-05-14T03:41:55;4.65;;;0.95;;
47617;SDS011;33336;36.728;-4.414;2023-05-14T03:46:58;0.90;;;0.50;;
47617;SDS011;33336;36.728;-4.414;2023-05-14T03:52:02;2.50;;;0.75;;
47617;SDS011;33336;36.728;-4.414;2023-05-14T03:57:07;1.58;;;0.70;;
47617;SDS011;33336;36.728;-4.414;2023-05-14T04:02:11;1.60;;;0.50;;
47617;SDS011;33336;36.728;-4.414;2023-05-14T04:07:13;3.08;;;0.80;;
47617;SDS011;33336;36.728;-4.414;2023-05-14T04:12:19;0.60;;;0.50;;
47617;SDS011;33336;36.728;-4.414;2023-05-14T04:17:22;0.98;;;0.60;;
47617;SDS011;33336;36.728;-4.414;2023-05-14T04:22:26;2.13;;;0.80;;
47617;SDS011;33336;36.728;-4.414;2023-05-14T04:27:31;3.70;;;0.80;;
47617;SDS011;33336;36.728;-4.414;2023-05-14T04:32:34;2.08;;;0.82;;
47617;SDS011;33336;36.728;-4.414;2023-05-14T04:37:37;2.20;;;0.50;;
47617;SDS011;33336;36.728;-4.414;2023-05-14T04:42:42;1.08;;;0.70;;
47617;SDS011;33336;36.728;-4.414;2023-05-14T04:47:45;1.55;;;0.70;;
47617;SDS011;33336;36.728;-4.414;2023-05-14T04:52:49;1.23;;;0.40;;
47617;SDS011;33336;36.728;-4.414;2023-05-14T04:57:53;1.52;;;0.73;;
47617;SDS011;33336;36.728;-4.414;2023-05-14T05:02:57;2.63;;;1.00;;
47617;SDS011;33336;36.728;-4.414;2023-05-14T05:08:00;4.88;;;1.25;;
47617;SDS011;33336;36.728;-4.414;2023-05-14T05:13:05;2.38;;;0.60;;
47617;SDS011;33336;36.728;-4.414;2023-05-14T05:18:08;2.47;;;0.80;;
47617;SDS011;33336;36.728;-4.414;2023-05-14T05:23:12;2.63;;;0.70;;
47617;SDS011;33336;36.728;-4.414;2023-05-14T05:28:16;2.55;;;0.50;;
47617;SDS011;33336;36.728;-4.414;2023-05-14T05:33:20;5.13;;;0.80;;
47617;SDS011;33336;36.728;-4.414;2023-05-14T05:38:23;2.15;;;1.08;;
47617;SDS011;33336;36.728;-4.414;2023-05-14T05:43:27;3.70;;;0.82;;
47617;SDS011;33336;36.728;-4.414;2023-05-14T05:48:30;1.83;;;0.90;;
47617;SDS011;33336;36.728;-4.414;2023-05-14T05:53:34;3.38;;;0.85;;
47617;SDS011;33336;36.728;-4.414;2023-05-14T05:58:38;1.35;;;0.73;;
47617;SDS011;33336;36.728;-4.414;2023-05-14T06:03:42;1.77;;;0.80;;
47617;SDS011;33336;36.728;-4.414;2023-05-14T06:08:45;3.22;;;0.80;;
47617;SDS011;33336;36.728;-4.414;2023-05-14T06:13:49;4.40;;;0.70;;
47617;SDS011;33336;36.728;-4.414;2023-05-14T06:18:55;1.30;;;0.63;;
47617;SDS011;33336;36.728;-4.414;2023-05-14T06:23:58;2.45;;;0.80;;
47617;SDS011;33336;36.728;-4.414;2023-05-14T06:29:02;1.90;;;0.85;;
47617;SDS011;33336;36.728;-4.414;2023-05-14T06:34:06;4.07;;;0.80;;
47617;SDS011;33336;36.728;-4.414;2023-05-14T06:39:09;2.95;;;1.00;;
47617;SDS011;33336;36.728;-4.414;2023-05-14T06:44:14;2.15;;;1.05;;
47617;SDS011;33336;36.728;-4.414;2023-05-14T06:49:18;6.22;;;1.10;;
47617;SDS011;33336;36.728;-4.414;2023-05-14T06:54:21;1.88;;;0.82;;
47617;SDS011;33336;36.728;-4.414;2023-05-14T06:59:25;5.53;;;1.10;;
47617;SDS011;33336;36.728;-4.414;2023-05-14T07:04:29;2.97;;;1.05;;
47617;SDS011;33336;36.728;-4.414;2023-05-14T07:09:32;2.05;;;1.27;;
47617;SDS011;33336;36.728;-4.414;2023-05-14T07:14:40;2.03;;;1.20;;
47617;SDS011;33336;36.728;-4.414;2023-05-14T07:24:46;4.30;;;1.10;;
47617;SDS011;33336;36.728;-4.414;2023-05-14T07:29:50;3.05;;;1.30;;
47617;SDS011;33336;36.728;-4.414;2023-05-14T07:34:54;3.85;;;1.10;;
47617;SDS011;33336;36.728;-4.414;2023-05-14T07:39:57;1.08;;;0.75;;
47617;SDS011;33336;36.728;-4.414;2023-05-14T07:45:02;3.50;;;1.15;;
47617;SDS011;33336;36.728;-4.414;2023-05-14T07:50:07;1.80;;;1.05;;
47617;SDS011;33336;36.728;-4.414;2023-05-14T07:55:11;3.47;;;0.93;;
47617;SDS011;33336;36.728;-4.414;2023-05-14T08:00:16;1.75;;;0.65;;
47617;SDS011;33336;36.728;-4.414;2023-05-14T08:05:21;3.45;;;0.70;;
47617;SDS011;33336;36.728;-4.414;2023-05-14T08:10:24;1.45;;;1.05;;
47617;SDS011;33336;36.728;-4.414;2023-05-14T08:15:28;5.10;;;0.80;;
47617;SDS011;33336;36.728;-4.414;2023-05-14T08:20:31;2.30;;;0.63;;
47617;SDS011;33336;36.728;-4.414;2023-05-14T08:25:34;2.40;;;1.00;;
47617;SDS011;33336;36.728;-4.414;2023-05-14T08:30:38;3.35;;;0.80;;
47617;SDS011;33336;36.728;-4.414;2023-05-14T08:35:42;1.95;;;0.80;;
47617;SDS011;33336;36.728;-4.414;2023-05-14T08:40:46;1.65;;;0.90;;
47617;SDS011;33336;36.728;-4.414;2023-05-14T08:45:51;4.25;;;1.13;;
47617;SDS011;33336;36.728;-4.414;2023-05-14T08:50:58;6.38;;;1.08;;
47617;SDS011;33336;36.728;-4.414;2023-05-14T08:56:03;4.35;;;1.08;;
47617;SDS011;33336;36.728;-4.414;2023-05-14T09:01:09;5.05;;;1.35;;
47617;SDS011;33336;36.728;-4.414;2023-05-14T09:06:12;4.55;;;1.00;;
47617;SDS011;33336;36.728;-4.414;2023-05-14T09:11:15;2.83;;;1.00;;
47617;SDS011;33336;36.728;-4.414;2023-05-14T09:16:20;8.27;;;1.70;;
47617;SDS011;33336;36.728;-4.414;2023-05-14T09:21:23;5.57;;;1.23;;
47617;SDS011;33336;36.728;-4.414;2023-05-14T09:26:27;5.88;;;1.33;;
47617;SDS011;33336;36.728;-4.414;2023-05-14T09:31:34;4.95;;;1.02;;
47617;SDS011;33336;36.728;-4.414;2023-05-14T09:36:37;3.30;;;1.20;;
47617;SDS011;33336;36.728;-4.414;2023-05-14T09:41:40;3.15;;;1.08;;
47617;SDS011;33336;36.728;-4.414;2023-05-14T09:46:44;8.00;;;1.38;;
47617;SDS011;33336;36.728;-4.414;2023-05-14T09:51:48;2.97;;;0.88;;
47617;SDS011;33336;36.728;-4.414;2023-05-14T09:56:52;5.15;;;0.90;;
47617;SDS011;33336;36.728;-4.414;2023-05-14T10:01:56;10.80;;;1.20;;
47617;SDS011;33336;36.728;-4.414;2023-05-14T10:07:00;1.55;;;0.63;;
47617;SDS011;33336;36.728;-4.414;2023-05-14T10:12:04;9.73;;;1.35;;
47617;SDS011;33336;36.728;-4.414;2023-05-14T10:22:37;5.57;;;1.17;;
47617;SDS011;33336;36.728;-4.414;2023-05-14T10:27:41;6.45;;;1.65;;
47617;SDS011;33336;36.728;-4.414;2023-05-14T10:32:46;6.28;;;1.40;;
47617;SDS011;33336;36.728;-4.414;2023-05-14T10:37:49;4.85;;;1.30;;
47617;SDS011;33336;36.728;-4.414;2023-05-14T10:42:52;5.25;;;1.40;;
47617;SDS011;33336;36.728;-4.414;2023-05-14T10:48:01;5.57;;;1.13;;
47617;SDS011;33336;36.728;-4.414;2023-05-14T10:53:04;6.95;;;1.55;;
47617;SDS011;33336;36.728;-4.414;2023-05-14T10:58:12;9.23;;;1.75;;
47617;SDS011;33336;36.728;-4.414;2023-05-14T11:03:17;5.00;;;1.55;;
47617;SDS011;33336;36.728;-4.414;2023-05-14T11:08:20;5.20;;;1.55;;
47617;SDS011;33336;36.728;-4.414;2023-05-14T11:13:24;7.18;;;1.98;;
47617;SDS011;33336;36.728;-4.414;2023-05-14T11:18:31;5.97;;;1.40;;
47617;SDS011;33336;36.728;-4.414;2023-05-14T11:23:38;5.38;;;1.13;;
47617;SDS011;33336;36.728;-4.414;2023-05-14T11:28:41;8.80;;;1.73;;
47617;SDS011;33336;36.728;-4.414;2023-05-14T11:33:47;6.30;;;1.20;;
47617;SDS011;33336;36.728;-4.414;2023-05-14T11:38:51;5.63;;;1.33;;
47617;SDS011;33336;36.728;-4.414;2023-05-14T11:43:53;5.47;;;1.15;;
47617;SDS011;33336;36.728;-4.414;2023-05-14T11:48:58;5.32;;;1.10;;
47617;SDS011;33336;36.728;-4.414;2023-05-14T11:54:01;3.22;;;0.88;;
47617;SDS011;33336;36.728;-4.414;2023-05-14T11:59:05;7.90;;;1.40;;
47617;SDS011;33336;36.728;-4.414;2023-05-14T12:04:09;6.10;;;1.63;;
47617;SDS011;33336;36.728;-4.414;2023-05-14T12:09:13;5.80;;;1.42;;
47617;SDS011;33336;36.728;-4.414;2023-05-14T12:14:18;8.68;;;1.65;;
47617;SDS011;33336;36.728;-4.414;2023-05-14T12:19:24;5.82;;;1.75;;
47617;SDS011;33336;36.728;-4.414;2023-05-14T12:24:27;10.18;;;1.45;;
47617;SDS011;33336;36.728;-4.414;2023-05-14T12:29:33;14.98;;;1.88;;
47617;SDS011;33336;36.728;-4.414;2023-05-14T12:34:39;5.40;;;1.48;;
47617;SDS011;33336;36.728;-4.414;2023-05-14T12:39:42;9.15;;;1.90;;
47617;SDS011;33336;36.728;-4.414;2023-05-14T12:44:46;24.25;;;2.33;;
47617;SDS011;33336;36.728;-4.414;2023-05-14T12:49:50;5.32;;;1.27;;
47617;SDS011;33336;36.728;-4.414;2023-05-14T12:54:54;6.25;;;1.65;;
47617;SDS011;33336;36.728;-4.414;2023-05-14T12:59:58;8.63;;;1.40;;
47617;SDS011;33336;36.728;-4.414;2023-05-14T13:05:02;11.15;;;1.63;;
47617;SDS011;33336;36.728;-4.414;2023-05-14T13:10:06;6.38;;;1.55;;
47617;SDS011;33336;36.728;-4.414;2023-05-14T13:15:11;14.40;;;2.13;;
47617;SDS011;33336;36.728;-4.414;2023-05-14T13:20:15;9.43;;;2.05;;
47617;SDS011;33336;36.728;-4.414;2023-05-14T13:25:19;11.10;;;2.42;;
47617;SDS011;33336;36.728;-4.414;2023-05-14T13:30:21;5.25;;;1.95;;
47617;SDS011;33336;36.728;-4.414;2023-05-14T13:35:26;11.50;;;2.33;;
47617;SDS011;33336;36.728;-4.414;2023-05-14T13:40:29;15.00;;;2.28;;
47617;SDS011;33336;36.728;-4.414;2023-05-14T13:45:33;5.78;;;1.55;;
47617;SDS011;33336;36.728;-4.414;2023-05-14T13:50:41;9.07;;;1.45;;
47617;SDS011;33336;36.728;-4.414;2023-05-14T13:55:46;11.02;;;2.45;;
47617;SDS011;33336;36.728;-4.414;2023-05-14T14:00:56;5.70;;;1.50;;
47617;SDS011;33336;36.728;-4.414;2023-05-14T14:06:03;3.90;;;1.40;;
47617;SDS011;33336;36.728;-4.414;2023-05-14T14:11:09;8.93;;;2.22;;
47617;SDS011;33336;36.728;-4.414;2023-05-14T14:22:49;5.80;;;1.38;;
47617;SDS011;33336;36.728;-4.414;2023-05-14T14:27:57;9.38;;;1.88;;
47617;SDS011;33336;36.728;-4.414;2023-05-14T14:33:00;5.18;;;1.65;;
47617;SDS011;33336;36.728;-4.414;2023-05-14T14:38:08;8.23;;;1.63;;
47617;SDS011;33336;36.728;-4.414;2023-05-14T14:43:12;6.53;;;1.33;;
47617;SDS011;33336;36.728;-4.414;2023-05-14T14:48:25;6.57;;;1.58;;
47617;SDS011;33336;36.728;-4.414;2023-05-14T14:53:32;6.53;;;1.70;;
47617;SDS011;33336;36.728;-4.414;2023-05-14T14:58:38;6.93;;;2.17;;
47617;SDS011;33336;36.728;-4.414;2023-05-14T15:03:41;7.75;;;1.52;;
47617;SDS011;33336;36.728;-4.414;2023-05-14T15:13:52;7.57;;;1.95;;
47617;SDS011;33336;36.728;-4.414;2023-05-14T15:18:56;7.80;;;2.10;;
47617;SDS011;33336;36.728;-4.414;2023-05-14T15:24:11;8.32;;;1.73;;
47617;SDS011;33336;36.728;-4.414;2023-05-14T15:29:18;10.00;;;2.00;;
47617;SDS011;33336;36.728;-4.414;2023-05-14T15:34:20;7.50;;;1.80;;
47617;SDS011;33336;36.728;-4.414;2023-05-14T15:39:25;12.55;;;2.40;;
47617;SDS011;33336;36.728;-4.414;2023-05-14T15:44:28;7.25;;;2.15;;
47617;SDS011;33336;36.728;-4.414;2023-05-14T15:49:33;8.95;;;1.90;;
47617;SDS011;33336;36.728;-4.414;2023-05-14T15:54:37;6.60;;;1.60;;
47617;SDS011;33336;36.728;-4.414;2023-05-14T15:59:42;10.13;;;2.53;;
47617;SDS011;33336;36.728;-4.414;2023-05-14T16:04:45;7.30;;;2.05;;
47617;SDS011;33336;36.728;-4.414;2023-05-14T16:09:51;5.55;;;1.67;;
47617;SDS011;33336;36.728;-4.414;2023-05-14T16:14:54;9.98;;;2.38;;
47617;SDS011;33336;36.728;-4.414;2023-05-14T16:19:59;6.88;;;1.90;;
47617;SDS011;33336;36.728;-4.414;2023-05-14T16:25:06;7.90;;;2.55;;
47617;SDS011;33336;36.728;-4.414;2023-05-14T16:30:10;4.47;;;1.40;;
47617;SDS011;33336;36.728;-4.414;2023-05-14T16:35:13;5.85;;;1.65;;
47617;SDS011;33336;36.728;-4.414;2023-05-14T16:40:19;8.80;;;1.63;;
47617;SDS011;33336;36.728;-4.414;2023-05-14T16:45:22;6.55;;;1.90;;
47617;SDS011;33336;36.728;-4.414;2023-05-14T16:50:26;6.75;;;1.73;;
47617;SDS011;33336;36.728;-4.414;2023-05-14T16:55:31;13.82;;;2.63;;
47617;SDS011;33336;36.728;-4.414;2023-05-14T17:00:35;12.18;;;2.65;;
47617;SDS011;33336;36.728;-4.414;2023-05-14T17:05:38;6.30;;;2.15;;
47617;SDS011;33336;36.728;-4.414;2023-05-14T17:10:43;8.73;;;1.75;;
47617;SDS011;33336;36.728;-4.414;2023-05-14T17:15:46;10.15;;;2.13;;
47617;SDS011;33336;36.728;-4.414;2023-05-14T17:20:50;8.80;;;1.80;;
47617;SDS011;33336;36.728;-4.414;2023-05-14T17:25:56;6.28;;;1.73;;
47617;SDS011;33336;36.728;-4.414;2023-05-14T17:31:00;7.32;;;2.03;;
47617;SDS011;33336;36.728;-4.414;2023-05-14T17:36:03;7.25;;;1.90;;
47617;SDS011;33336;36.728;-4.414;2023-05-14T17:41:08;11.00;;;2.00;;
47617;SDS011;33336;36.728;-4.414;2023-05-14T17:46:11;9.47;;;2.10;;
47617;SDS011;33336;36.728;-4.414;2023-05-14T17:51:15;10.20;;;2.25;;
47617;SDS011;33336;36.728;-4.414;2023-05-14T17:56:19;5.72;;;1.92;;
47617;SDS011;33336;36.728;-4.414;2023-05-14T18:01:23;10.98;;;2.45;;
47617;SDS011;33336;36.728;-4.414;2023-05-14T18:06:26;7.40;;;2.15;;
47617;SDS011;33336;36.728;-4.414;2023-05-14T18:11:32;6.78;;;1.77;;
47617;SDS011;33336;36.728;-4.414;2023-05-14T18:16:45;6.43;;;1.80;;
47617;SDS011;33336;36.728;-4.414;2023-05-14T18:21:49;7.50;;;2.15;;
47617;SDS011;33336;36.728;-4.414;2023-05-14T18:26:55;10.48;;;1.75;;
47617;SDS011;33336;36.728;-4.414;2023-05-14T18:37:20;7.88;;;2.05;;
47617;SDS011;33336;36.728;-4.414;2023-05-14T18:42:26;6.00;;;1.67;;
47617;SDS011;33336;36.728;-4.414;2023-05-14T18:47:28;8.73;;;1.80;;
47617;SDS011;33336;36.728;-4.414;2023-05-14T18:52:32;7.78;;;2.50;;
47617;SDS011;33336;36.728;-4.414;2023-05-14T18:57:36;11.02;;;2.10;;
47617;SDS011;33336;36.728;-4.414;2023-05-14T19:02:42;9.70;;;1.98;;
47617;SDS011;33336;36.728;-4.414;2023-05-14T19:07:45;10.77;;;2.70;;
47617;SDS011;33336;36.728;-4.414;2023-05-14T19:12:51;10.50;;;2.80;;
47617;SDS011;33336;36.728;-4.414;2023-05-14T19:17:54;8.00;;;2.03;;
47617;SDS011;33336;36.728;-4.414;2023-05-14T19:22:58;11.27;;;2.72;;
47617;SDS011;33336;36.728;-4.414;2023-05-14T19:28:02;12.93;;;2.65;;
47617;SDS011;33336;36.728;-4.414;2023-05-14T19:33:06;12.95;;;2.20;;
47617;SDS011;33336;36.728;-4.414;2023-05-14T19:38:08;9.55;;;2.40;;
47617;SDS011;33336;36.728;-4.414;2023-05-14T19:43:13;9.13;;;2.28;;
47617;SDS011;33336;36.728;-4.414;2023-05-14T19:48:17;8.18;;;1.85;;
47617;SDS011;33336;36.728;-4.414;2023-05-14T19:53:19;8.10;;;2.40;;
47617;SDS011;33336;36.728;-4.414;2023-05-14T19:58:26;9.18;;;2.13;;
47617;SDS011;33336;36.728;-4.414;2023-05-14T20:03:31;12.70;;;4.65;;
47617;SDS011;33336;36.728;-4.414;2023-05-14T20:08:36;13.32;;;3.47;;
47617;SDS011;33336;36.728;-4.414;2023-05-14T20:13:40;12.63;;;3.35;;
47617;SDS011;33336;36.728;-4.414;2023-05-14T20:18:43;7.85;;;2.58;;
47617;SDS011;33336;36.728;-4.414;2023-05-14T20:23:46;11.82;;;1.88;;
47617;SDS011;33336;36.728;-4.414;2023-05-14T20:28:52;9.65;;;2.45;;
47617;SDS011;33336;36.728;-4.414;2023-05-14T20:33:55;8.18;;;2.38;;
47617;SDS011;33336;36.728;-4.414;2023-05-14T20:38:59;10.40;;;2.80;;
47617;SDS011;33336;36.728;-4.414;2023-05-14T20:44:03;11.60;;;3.40;;
47617;SDS011;33336;36.728;-4.414;2023-05-14T20:49:07;9.93;;;2.60;;
47617;SDS011;33336;36.728;-4.414;2023-05-14T20:54:10;10.40;;;2.67;;
47617;SDS011;33336;36.728;-4.414;2023-05-14T20:59:15;8.20;;;3.05;;
47617;SDS011;33336;36.728;-4.414;2023-05-14T21:04:18;12.88;;;3.13;;
47617;SDS011;33336;36.728;-4.414;2023-05-14T21:09:22;11.15;;;3.38;;
47617;SDS011;33336;36.728;-4.414;2023-05-14T21:14:28;11.65;;;3.60;;
47617;SDS011;33336;36.728;-4.414;2023-05-14T21:19:32;10.20;;;2.67;;
47617;SDS011;33336;36.728;-4.414;2023-05-14T21:24:35;7.65;;;3.75;;
47617;SDS011;33336;36.728;-4.414;2023-05-14T21:29:40;9.00;;;4.40;;
47617;SDS011;33336;36.728;-4.414;2023-05-14T21:34:44;20.05;;;4.45;;
47617;SDS011;33336;36.728;-4.414;2023-05-14T21:39:48;10.35;;;3.60;;
47617;SDS011;33336;36.728;-4.414;2023-05-14T21:44:52;13.52;;;3.72;;
47617;SDS011;33336;36.728;-4.414;2023-05-14T21:49:56;10.75;;;3.65;;
47617;SDS011;33336;36.728;-4.414;2023-05-14T21:54:59;9.40;;;3.58;;
47617;SDS011;33336;36.728;-4.414;2023-05-14T22:00:05;9.77;;;4.05;;
47617;SDS011;33336;36.728;-4.414;2023-05-14T22:05:12;8.68;;;3.15;;
47617;SDS011;33336;36.728;-4.414;2023-05-14T22:10:16;5.65;;;2.60;;
47617;SDS011;33336;36.728;-4.414;2023-05-14T22:15:21;4.78;;;1.77;;
47617;SDS011;33336;36.728;-4.414;2023-05-14T22:20:25;5.47;;;1.50;;
47617;SDS011;33336;36.728;-4.414;2023-05-14T22:25:27;7.10;;;1.85;;
47617;SDS011;33336;36.728;-4.414;2023-05-14T22:30:33;4.10;;;1.58;;
47617;SDS011;33336;36.728;-4.414;2023-05-14T22:35:36;7.30;;;1.77;;
47617;SDS011;33336;36.728;-4.414;2023-05-14T22:40:41;4.25;;;1.48;;
47617;SDS011;33336;36.728;-4.414;2023-05-14T22:45:45;5.53;;;1.70;;
47617;SDS011;33336;36.728;-4.414;2023-05-14T22:50:49;5.35;;;1.80;;
47617;SDS011;33336;36.728;-4.414;2023-05-14T22:55:52;3.65;;;1.02;;
47617;SDS011;33336;36.728;-4.414;2023-05-14T23:00:58;4.97;;;1.58;;
47617;SDS011;33336;36.728;-4.414;2023-05-14T23:06:01;1.92;;;0.98;;
47617;SDS011;33336;36.728;-4.414;2023-05-14T23:11:05;2.63;;;0.93;;
47617;SDS011;33336;36.728;-4.414;2023-05-14T23:16:09;3.97;;;1.10;;
47617;SDS011;33336;36.728;-4.414;2023-05-14T23:21:13;6.03;;;1.33;;
47617;SDS011;33336;36.728;-4.414;2023-05-14T23:26:16;3.25;;;0.95;;
47617;SDS011;33336;36.728;-4.414;2023-05-14T23:31:21;2.45;;;0.95;;
47617;SDS011;33336;36.728;-4.414;2023-05-14T23:36:24;6.03;;;0.85;;
47617;SDS011;33336;36.728;-4.414;2023-05-14T23:41:28;3.70;;;0.73;;
47617;SDS011;33336;36.728;-4.414;2023-05-14T23:46:32;6.45;;;0.70;;
47617;SDS011;33336;36.728;-4.414;2023-05-14T23:51:36;3.70;;;0.70;;
47617;SDS011;33336;36.728;-4.414;2023-05-14T23:56:39;3.50;;;0.70;;
